Columbus, IN

4:11 AM EST on January 19, 2017 (GMT -0500)
Himsel Army Airfld, Nineveh,

Weather History for K1II - April, 2014

Change the Weather History Date:

Tuesday, April 1, 2014

  Actual Average (KBAK) Record (KBAK)
Temperature  
Mean Temperature 60 °F -  
Max Temperature 68 °F 57 °F 75 °F (2003)
Min Temperature 51 °F 38 °F 30 °F (1997)
Degree Days  
Heating Degree Days 6    
Growing Degree Days 10 (Base 50)    
Moisture  
Dew Point 34 °F    
Average Humidity 39    
Maximum Humidity 67    
Minimum Humidity 18    
Precipitation  
Precipitation 0.00 in - - ()
Sea Level Pressure  
Sea Level Pressure 29.96 in    
Wind  
Wind Speed 11 mph (WSW)    
Max Wind Speed 23 mph    
Max Gust Speed 33 mph    
Visibility 10 miles    
Events Rain    
Averages and records for this station are not official NWS values.
T = Trace of Precipitation, MM = Missing Value Source: NWS Daily Summary

Daily Weather History Graph

Daily Weather History Graph

Search for Another Location

Airport or City:

Trip Planner

Search our weather history database for the weather conditions in past years. The results will help you decide how hot, cold, wet, or windy it might be!

Date:

Astronomy

Apr. 01, 2014 Rise Set
Actual Time 7:28 AM EDT 8:08 PM EDT
Civil Twilight 7:01 AM EDT 8:35 PM EDT
Nautical Twilight 6:29 AM EDT 9:07 PM EDT
Astronomical Twilight 5:56 AM EDT 9:40 PM EDT
Moon 8:31 AM EDT (4/1) 10:29 PM EDT (4/1)
Length of Visible Light 13h 33m
Length of Day
12h 39m
Waxing Crescent, 4% of the Moon is Illuminated
Apr 1
Waxing Crescent
Apr 7
First Quarter
Apr 15
Full
Apr 22
Last Quarter
Apr 29
New

Hourly Weather History & Observations

Time (EDT) Temp. Dew Point Humidity Pressure Visibility Wind Dir Wind Speed Gust Speed Precip Events Conditions
12:15 AM 59.0 °F 33.8 °F 39% 29.92 in 10.0 mi SSE 8.1 mph 16.1 mph N/A Rain Light Rain
12:35 AM 57.2 °F 33.8 °F 41% 29.93 in 10.0 mi South 5.8 mph - N/A Rain Light Rain
12:55 AM 57.2 °F 33.8 °F 41% 29.94 in 10.0 mi South 12.7 mph - N/A   Unknown
1:15 AM 59.0 °F 33.8 °F 39% 29.94 in 10.0 mi South 10.4 mph - N/A   Unknown
1:35 AM 59.0 °F 32.0 °F 36% 29.94 in 10.0 mi South 12.7 mph 17.3 mph N/A   Unknown
2:15 AM 59.0 °F 32.0 °F 36% 29.96 in 10.0 mi SW 6.9 mph - N/A   Unknown
2:35 AM 59.0 °F 35.6 °F 42% 29.94 in 10.0 mi SW 8.1 mph - N/A   Unknown
2:55 AM 55.4 °F 37.4 °F 51% 29.93 in 10.0 mi SSE 6.9 mph - N/A   Unknown
3:15 AM 55.4 °F 35.6 °F 47% 29.92 in 10.0 mi South 4.6 mph - N/A   Unknown
3:35 AM 53.6 °F 37.4 °F 54% 29.93 in 10.0 mi SSW 8.1 mph - N/A   Unknown
3:55 AM 55.4 °F 35.6 °F 47% 29.91 in 10.0 mi South 6.9 mph - N/A   Unknown
4:15 AM 55.4 °F 35.6 °F 47% 29.90 in 10.0 mi South 8.1 mph - N/A   Unknown
4:35 AM 59.0 °F 35.6 °F 42% 29.90 in 10.0 mi SSW 10.4 mph - N/A   Unknown
4:55 AM 59.0 °F 37.4 °F 45% 29.89 in 10.0 mi SW 5.8 mph - N/A   Unknown
5:15 AM 59.0 °F 37.4 °F 45% 29.89 in 10.0 mi SSW 5.8 mph - N/A   Unknown
5:35 AM 59.0 °F 37.4 °F 45% 29.88 in 10.0 mi SSW 11.5 mph - N/A   Unknown
5:55 AM 59.0 °F 37.4 °F 45% 29.88 in 10.0 mi SW 8.1 mph 17.3 mph N/A   Unknown
6:15 AM 59.0 °F 37.4 °F 45% 29.88 in 10.0 mi SSW 10.4 mph - N/A   Unknown
6:35 AM 57.2 °F 39.2 °F 51% 29.87 in 10.0 mi SSW 11.5 mph - N/A   Unknown
6:55 AM 57.2 °F 41.0 °F 55% 29.87 in 10.0 mi SSW 10.4 mph 16.1 mph N/A   Unknown
7:15 AM 55.4 °F 41.0 °F 58% 29.88 in 10.0 mi SW 9.2 mph - N/A   Unknown
7:35 AM 55.4 °F 41.0 °F 58% 29.89 in 10.0 mi SW 9.2 mph - N/A   Unknown
7:55 AM 55.4 °F 41.0 °F 58% 29.90 in 10.0 mi SW 8.1 mph - N/A   Unknown
8:15 AM 57.2 °F 42.8 °F 59% 29.91 in 10.0 mi SW 9.2 mph - N/A   Unknown
8:35 AM 59.0 °F 41.0 °F 51% 29.91 in 10.0 mi WSW 11.5 mph 21.9 mph N/A   Unknown
8:55 AM 59.0 °F 42.8 °F 55% 29.91 in 10.0 mi WSW 15.0 mph 21.9 mph N/A   Unknown
9:15 AM 59.0 °F 42.8 °F 55% 29.91 in 10.0 mi WSW 17.3 mph 33.4 mph N/A   Unknown
9:35 AM 60.8 °F 41.0 °F 48% 29.91 in 10.0 mi WSW 23.0 mph 29.9 mph N/A   Unknown
9:55 AM 60.8 °F 41.0 °F 48% 29.91 in 10.0 mi WSW 20.7 mph 27.6 mph N/A   Unknown
10:15 AM 62.6 °F 41.0 °F 45% 29.92 in 10.0 mi WSW 21.9 mph 31.1 mph N/A   Unknown
10:35 AM 62.6 °F 41.0 °F 45% 29.93 in 10.0 mi West 16.1 mph 25.3 mph N/A   Unknown
10:55 AM 62.6 °F 39.2 °F 42% 29.93 in 10.0 mi West 17.3 mph 25.3 mph N/A   Unknown
11:15 AM 62.6 °F 41.0 °F 45% 29.94 in 10.0 mi West 15.0 mph 28.8 mph N/A   Unknown
11:35 AM 62.6 °F 41.0 °F 45% 29.94 in 10.0 mi West 20.7 mph 25.3 mph N/A   Unknown
11:55 AM 64.4 °F 41.0 °F 42% 29.94 in 10.0 mi SW 15.0 mph 26.5 mph N/A   Unknown
12:15 PM 64.4 °F 37.4 °F 37% 29.95 in 10.0 mi West 16.1 mph 25.3 mph N/A   Unknown
12:35 PM 64.4 °F 37.4 °F 37% 29.95 in 10.0 mi West 15.0 mph 26.5 mph N/A   Unknown
12:55 PM 64.4 °F 33.8 °F 32% 29.96 in 10.0 mi West 16.1 mph 26.5 mph N/A   Unknown
1:15 PM 64.4 °F 32.0 °F 30% 29.96 in 10.0 mi WSW 18.4 mph 28.8 mph N/A   Unknown
1:35 PM 66.2 °F 32.0 °F 28% 29.96 in 10.0 mi WSW 21.9 mph 33.4 mph N/A   Unknown
1:55 PM 66.2 °F 30.2 °F 26% 29.97 in 10.0 mi WSW 21.9 mph 32.2 mph N/A   Unknown
2:15 PM 68.0 °F 30.2 °F 24% 29.97 in 10.0 mi West 13.8 mph 24.2 mph N/A   Unknown
2:35 PM 68.0 °F 30.2 °F 24% 29.97 in 10.0 mi West 16.1 mph 24.2 mph N/A   Unknown
2:55 PM 68.0 °F 28.4 °F 23% 29.97 in 10.0 mi WSW 19.6 mph 28.8 mph N/A   Unknown
3:15 PM 68.0 °F 30.2 °F 24% 29.97 in 10.0 mi WSW 17.3 mph 23.0 mph N/A   Unknown
3:35 PM 68.0 °F 28.4 °F 23% 29.97 in 10.0 mi West 16.1 mph 25.3 mph N/A   Unknown
3:55 PM 68.0 °F 26.6 °F 21% 29.97 in 10.0 mi West 17.3 mph 29.9 mph N/A   Unknown
4:15 PM 68.0 °F 24.8 °F 20% 29.98 in 10.0 mi West 20.7 mph 27.6 mph N/A   Unknown
4:35 PM 68.0 °F 26.6 °F 21% 29.98 in 10.0 mi WSW 20.7 mph 26.5 mph N/A   Unknown
4:55 PM 68.0 °F 24.8 °F 20% 29.98 in 10.0 mi West 18.4 mph 33.4 mph N/A   Unknown
5:15 PM 68.0 °F 24.8 °F 20% 29.98 in 10.0 mi West 13.8 mph 21.9 mph N/A   Unknown
5:35 PM 68.0 °F 23.0 °F 18% 29.98 in 10.0 mi West 12.7 mph 24.2 mph N/A   Unknown
5:55 PM 68.0 °F 24.8 °F 20% 29.97 in 10.0 mi West 10.4 mph - N/A   Unknown
6:15 PM 68.0 °F 26.6 °F 21% 29.98 in 10.0 mi SW 12.7 mph - N/A   Unknown
6:35 PM 66.2 °F 28.4 °F 24% 30.00 in 10.0 mi WSW 12.7 mph 17.3 mph N/A   Unknown
6:55 PM 64.4 °F 28.4 °F 26% 30.01 in 10.0 mi West 8.1 mph 16.1 mph N/A   Unknown
7:15 PM 64.4 °F 28.4 °F 26% 30.02 in 10.0 mi NW 6.9 mph - N/A   Unknown
7:35 PM 60.8 °F 28.4 °F 29% 30.03 in 10.0 mi NW 8.1 mph - N/A   Unknown
7:55 PM 59.0 °F 28.4 °F 31% 30.05 in 10.0 mi WNW 6.9 mph - N/A   Unknown
8:15 PM 60.8 °F 28.4 °F 29% 30.05 in 10.0 mi WNW 5.8 mph - N/A   Unknown
8:35 PM 59.0 °F 30.2 °F 34% 30.06 in 10.0 mi NW 4.6 mph - N/A   Unknown
8:55 PM 59.0 °F 30.2 °F 34% 30.06 in 10.0 mi WNW 4.6 mph - N/A   Unknown
9:15 PM 57.2 °F 32.0 °F 38% 30.06 in 10.0 mi NNW 4.6 mph - N/A   Unknown
9:35 PM 55.4 °F 32.0 °F 41% 30.08 in 10.0 mi WNW 5.8 mph - N/A   Unknown
9:55 PM 55.4 °F 32.0 °F 41% 30.08 in 10.0 mi NW 8.1 mph - N/A   Unknown
10:15 PM 55.4 °F 32.0 °F 41% 30.10 in 10.0 mi West 4.6 mph - N/A   Unknown
10:35 PM 55.4 °F 32.0 °F 41% 30.10 in 10.0 mi West 3.5 mph - N/A   Unknown
10:55 PM 55.4 °F 33.8 °F 44% 30.08 in 10.0 mi NNW 5.8 mph - N/A Rain Light Rain
11:15 PM 53.6 °F 35.6 °F 51% 30.06 in 10.0 mi North 3.5 mph - N/A Rain Light Rain
11:35 PM 51.8 °F 37.4 °F 58% 30.08 in 10.0 mi Calm Calm - N/A Rain Light Rain
11:55 PM 51.8 °F 41.0 °F 67% 30.07 in 10.0 mi Calm Calm - N/A Rain Light Rain